sensor_id;sensor_type;location;lat;lon;timestamp;temperature;humidity
46416;DHT22;32620;51.704;7.822;2023-02-22T00:00:29;8.20;99.90
46416;DHT22;32620;51.704;7.822;2023-02-22T00:03:05;8.20;99.90
46416;DHT22;32620;51.704;7.822;2023-02-22T00:05:32;8.10;99.90
46416;DHT22;32620;51.704;7.822;2023-02-22T00:07:58;8.20;99.90
46416;DHT22;32620;51.704;7.822;2023-02-22T00:10:25;8.20;99.90
46416;DHT22;32620;51.704;7.822;2023-02-22T00:12:53;8.20;99.90
46416;DHT22;32620;51.704;7.822;2023-02-22T00:15:21;8.20;99.90
46416;DHT22;32620;51.704;7.822;2023-02-22T00:17:47;8.20;99.90
46416;DHT22;32620;51.704;7.822;2023-02-22T00:20:14;8.20;99.90
46416;DHT22;32620;51.704;7.822;2023-02-22T00:22:43;8.20;99.90
46416;DHT22;32620;51.704;7.822;2023-02-22T00:25:11;8.20;99.90
46416;DHT22;32620;51.704;7.822;2023-02-22T00:27:37;8.30;99.90
46416;DHT22;32620;51.704;7.822;2023-02-22T00:30:04;8.20;99.90
46416;DHT22;32620;51.704;7.822;2023-02-22T00:32:30;8.20;99.90
46416;DHT22;32620;51.704;7.822;2023-02-22T00:34:56;8.20;99.90
46416;DHT22;32620;51.704;7.822;2023-02-22T00:37:21;8.20;99.90
46416;DHT22;32620;51.704;7.822;2023-02-22T00:39:48;8.10;99.90
46416;DHT22;32620;51.704;7.822;2023-02-22T00:42:14;8.10;99.90
46416;DHT22;32620;51.704;7.822;2023-02-22T00:44:40;8.10;99.90
46416;DHT22;32620;51.704;7.822;2023-02-22T00:47:06;8.00;99.90
46416;DHT22;32620;51.704;7.822;2023-02-22T00:49:33;8.00;99.90
46416;DHT22;32620;51.704;7.822;2023-02-22T00:51:59;8.00;99.90
46416;DHT22;32620;51.704;7.822;2023-02-22T00:54:25;7.90;99.90
46416;DHT22;32620;51.704;7.822;2023-02-22T00:56:50;7.90;99.90
46416;DHT22;32620;51.704;7.822;2023-02-22T00:59:16;7.80;99.90
46416;DHT22;32620;51.704;7.822;2023-02-22T01:01:42;7.80;99.90
46416;DHT22;32620;51.704;7.822;2023-02-22T01:04:08;7.80;99.90
46416;DHT22;32620;51.704;7.822;2023-02-22T01:06:33;7.80;99.90
46416;DHT22;32620;51.704;7.822;2023-02-22T01:08:59;7.70;99.90
46416;DHT22;32620;51.704;7.822;2023-02-22T01:11:26;7.60;99.90
46416;DHT22;32620;51.704;7.822;2023-02-22T01:13:52;7.60;99.90
46416;DHT22;32620;51.704;7.822;2023-02-22T01:16:19;7.50;99.90
46416;DHT22;32620;51.704;7.822;2023-02-22T01:18:44;7.50;99.90
46416;DHT22;32620;51.704;7.822;2023-02-22T01:21:10;7.50;99.90
46416;DHT22;32620;51.704;7.822;2023-02-22T01:23:35;7.50;99.90
46416;DHT22;32620;51.704;7.822;2023-02-22T01:26:01;7.40;99.90
46416;DHT22;32620;51.704;7.822;2023-02-22T01:28:31;7.40;99.90
46416;DHT22;32620;51.704;7.822;2023-02-22T01:30:57;7.40;99.90
46416;DHT22;32620;51.704;7.822;2023-02-22T01:33:23;7.40;99.90
46416;DHT22;32620;51.704;7.822;2023-02-22T01:35:50;7.40;99.90
46416;DHT22;32620;51.704;7.822;2023-02-22T01:38:16;7.40;99.90
46416;DHT22;32620;51.704;7.822;2023-02-22T01:40:45;7.30;99.90
46416;DHT22;32620;51.704;7.822;2023-02-22T01:43:23;7.30;99.90
46416;DHT22;32620;51.704;7.822;2023-02-22T01:46:01;7.40;99.90
46416;DHT22;32620;51.704;7.822;2023-02-22T01:51:11;7.30;99.90
46416;DHT22;32620;51.704;7.822;2023-02-22T01:53:56;7.30;99.90
46416;DHT22;32620;51.704;7.822;2023-02-22T01:56:25;7.30;99.90
46416;DHT22;32620;51.704;7.822;2023-02-22T01:58:56;7.30;99.90
46416;DHT22;32620;51.704;7.822;2023-02-22T02:01:23;7.30;99.90
46416;DHT22;32620;51.704;7.822;2023-02-22T02:03:51;7.20;99.90
46416;DHT22;32620;51.704;7.822;2023-02-22T02:06:18;7.10;99.90
46416;DHT22;32620;51.704;7.822;2023-02-22T02:08:56;7.10;99.90
46416;DHT22;32620;51.704;7.822;2023-02-22T02:11:25;7.00;99.90
46416;DHT22;32620;51.704;7.822;2023-02-22T02:13:55;7.00;99.90
46416;DHT22;32620;51.704;7.822;2023-02-22T02:16:23;6.90;99.90
46416;DHT22;32620;51.704;7.822;2023-02-22T02:18:50;6.90;99.90
46416;DHT22;32620;51.704;7.822;2023-02-22T02:21:38;6.80;99.90
46416;DHT22;32620;51.704;7.822;2023-02-22T02:24:31;6.80;99.90
46416;DHT22;32620;51.704;7.822;2023-02-22T02:27:16;6.80;99.90
46416;DHT22;32620;51.704;7.822;2023-02-22T02:30:10;6.80;99.90
46416;DHT22;32620;51.704;7.822;2023-02-22T02:35:50;6.80;99.90
46416;DHT22;32620;51.704;7.822;2023-02-22T02:41:27;6.70;99.90
46416;DHT22;32620;51.704;7.822;2023-02-22T02:44:05;6.60;99.90
46416;DHT22;32620;51.704;7.822;2023-02-22T02:46:43;6.60;99.90
46416;DHT22;32620;51.704;7.822;2023-02-22T02:49:15;6.60;99.90
46416;DHT22;32620;51.704;7.822;2023-02-22T02:51:48;6.60;99.90
46416;DHT22;32620;51.704;7.822;2023-02-22T02:54:16;6.60;99.90
46416;DHT22;32620;51.704;7.822;2023-02-22T02:56:42;6.60;99.90
46416;DHT22;32620;51.704;7.822;2023-02-22T02:59:35;6.60;99.90
46416;DHT22;32620;51.704;7.822;2023-02-22T03:05:34;6.60;99.90
46416;DHT22;32620;51.704;7.822;2023-02-22T03:11:17;6.50;99.90
46416;DHT22;32620;51.704;7.822;2023-02-22T03:14:10;6.50;99.90
46416;DHT22;32620;51.704;7.822;2023-02-22T03:16:49;6.50;99.90
46416;DHT22;32620;51.704;7.822;2023-02-22T03:19:26;6.50;99.90
46416;DHT22;32620;51.704;7.822;2023-02-22T03:22:08;6.50;99.90
46416;DHT22;32620;51.704;7.822;2023-02-22T03:25:00;6.50;99.90
46416;DHT22;32620;51.704;7.822;2023-02-22T03:27:36;6.40;99.90
46416;DHT22;32620;51.704;7.822;2023-02-22T03:30:11;6.40;99.90
46416;DHT22;32620;51.704;7.822;2023-02-22T03:32:41;6.30;99.90
46416;DHT22;32620;51.704;7.822;2023-02-22T03:35:12;6.30;99.90
46416;DHT22;32620;51.704;7.822;2023-02-22T03:37:45;6.20;99.90
46416;DHT22;32620;51.704;7.822;2023-02-22T03:40:17;6.20;99.90
46416;DHT22;32620;51.704;7.822;2023-02-22T03:42:53;6.10;99.90
46416;DHT22;32620;51.704;7.822;2023-02-22T03:45:21;6.10;99.90
46416;DHT22;32620;51.704;7.822;2023-02-22T03:47:55;6.10;99.90
46416;DHT22;32620;51.704;7.822;2023-02-22T03:50:25;6.00;99.90
46416;DHT22;32620;51.704;7.822;2023-02-22T03:52:54;6.10;99.90
46416;DHT22;32620;51.704;7.822;2023-02-22T03:55:20;6.10;99.90
46416;DHT22;32620;51.704;7.822;2023-02-22T03:57:51;6.00;99.90
46416;DHT22;32620;51.704;7.822;2023-02-22T04:00:21;6.00;99.90
46416;DHT22;32620;51.704;7.822;2023-02-22T04:02:47;6.00;99.90
46416;DHT22;32620;51.704;7.822;2023-02-22T04:05:12;6.00;99.90
46416;DHT22;32620;51.704;7.822;2023-02-22T04:07:39;6.00;99.90
46416;DHT22;32620;51.704;7.822;2023-02-22T04:10:05;6.00;99.90
46416;DHT22;32620;51.704;7.822;2023-02-22T04:12:34;5.90;99.90
46416;DHT22;32620;51.704;7.822;2023-02-22T04:15:00;5.90;99.90
46416;DHT22;32620;51.704;7.822;2023-02-22T04:17:26;5.80;99.90
46416;DHT22;32620;51.704;7.822;2023-02-22T04:19:52;5.80;99.90
46416;DHT22;32620;51.704;7.822;2023-02-22T04:22:17;5.80;99.90
46416;DHT22;32620;51.704;7.822;2023-02-22T04:24:43;5.70;99.90
46416;DHT22;32620;51.704;7.822;2023-02-22T04:27:09;5.60;99.90
46416;DHT22;32620;51.704;7.822;2023-02-22T04:29:35;5.60;99.90
46416;DHT22;32620;51.704;7.822;2023-02-22T04:32:00;5.60;99.90
46416;DHT22;32620;51.704;7.822;2023-02-22T04:34:26;5.50;99.90
46416;DHT22;32620;51.704;7.822;2023-02-22T04:36:51;5.60;99.90
46416;DHT22;32620;51.704;7.822;2023-02-22T04:39:17;5.60;99.90
46416;DHT22;32620;51.704;7.822;2023-02-22T04:41:42;5.60;99.90
46416;DHT22;32620;51.704;7.822;2023-02-22T04:44:08;5.50;99.90
46416;DHT22;32620;51.704;7.822;2023-02-22T04:46:34;5.50;99.90
46416;DHT22;32620;51.704;7.822;2023-02-22T04:48:59;5.50;99.90
46416;DHT22;32620;51.704;7.822;2023-02-22T04:51:25;5.50;99.90
46416;DHT22;32620;51.704;7.822;2023-02-22T04:53:50;5.50;99.90
46416;DHT22;32620;51.704;7.822;2023-02-22T04:56:17;5.50;99.90
46416;DHT22;32620;51.704;7.822;2023-02-22T04:58:43;5.40;99.90
46416;DHT22;32620;51.704;7.822;2023-02-22T05:01:09;5.40;99.90
46416;DHT22;32620;51.704;7.822;2023-02-22T05:03:37;5.30;99.90
46416;DHT22;32620;51.704;7.822;2023-02-22T05:06:02;5.20;99.90
46416;DHT22;32620;51.704;7.822;2023-02-22T05:08:28;5.10;99.90
46416;DHT22;32620;51.704;7.822;2023-02-22T05:10:54;5.10;99.90
46416;DHT22;32620;51.704;7.822;2023-02-22T05:13:19;5.10;99.90
46416;DHT22;32620;51.704;7.822;2023-02-22T05:15:45;4.90;99.90
46416;DHT22;32620;51.704;7.822;2023-02-22T05:18:12;4.80;99.90
46416;DHT22;32620;51.704;7.822;2023-02-22T05:20:38;4.80;99.90
46416;DHT22;32620;51.704;7.822;2023-02-22T05:23:03;4.80;99.90
46416;DHT22;32620;51.704;7.822;2023-02-22T05:25:30;4.70;99.90
46416;DHT22;32620;51.704;7.822;2023-02-22T05:27:58;4.80;99.90
46416;DHT22;32620;51.704;7.822;2023-02-22T05:30:28;4.80;99.90
46416;DHT22;32620;51.704;7.822;2023-02-22T05:32:54;4.70;99.90
46416;DHT22;32620;51.704;7.822;2023-02-22T05:35:21;4.80;99.90
46416;DHT22;32620;51.704;7.822;2023-02-22T05:37:46;4.70;99.90
46416;DHT22;32620;51.704;7.822;2023-02-22T05:40:13;4.60;99.90
46416;DHT22;32620;51.704;7.822;2023-02-22T05:42:39;4.50;99.90
46416;DHT22;32620;51.704;7.822;2023-02-22T05:45:06;4.50;99.90
46416;DHT22;32620;51.704;7.822;2023-02-22T05:47:31;4.40;99.90
46416;DHT22;32620;51.704;7.822;2023-02-22T05:49:57;4.40;99.90
46416;DHT22;32620;51.704;7.822;2023-02-22T05:52:23;4.30;99.90
46416;DHT22;32620;51.704;7.822;2023-02-22T05:54:48;4.20;99.90
46416;DHT22;32620;51.704;7.822;2023-02-22T05:57:14;4.10;99.90
46416;DHT22;32620;51.704;7.822;2023-02-22T05:59:39;4.00;99.90
46416;DHT22;32620;51.704;7.822;2023-02-22T06:02:05;3.90;99.90
46416;DHT22;32620;51.704;7.822;2023-02-22T06:04:30;4.00;99.90
46416;DHT22;32620;51.704;7.822;2023-02-22T06:06:56;4.00;99.90
46416;DHT22;32620;51.704;7.822;2023-02-22T06:09:22;4.00;99.90
46416;DHT22;32620;51.704;7.822;2023-02-22T06:11:47;4.00;99.90
46416;DHT22;32620;51.704;7.822;2023-02-22T06:14:13;4.10;99.90
46416;DHT22;32620;51.704;7.822;2023-02-22T06:16:38;4.10;99.90
46416;DHT22;32620;51.704;7.822;2023-02-22T06:19:04;4.10;99.90
46416;DHT22;32620;51.704;7.822;2023-02-22T06:21:29;4.20;99.90
46416;DHT22;32620;51.704;7.822;2023-02-22T06:23:55;4.10;99.90
46416;DHT22;32620;51.704;7.822;2023-02-22T06:26:20;4.20;99.90
46416;DHT22;32620;51.704;7.822;2023-02-22T06:28:47;4.10;99.90
46416;DHT22;32620;51.704;7.822;2023-02-22T06:31:13;4.10;99.90
46416;DHT22;32620;51.704;7.822;2023-02-22T06:33:39;4.10;99.90
46416;DHT22;32620;51.704;7.822;2023-02-22T06:36:05;4.10;99.90
46416;DHT22;32620;51.704;7.822;2023-02-22T06:38:31;4.10;99.90
46416;DHT22;32620;51.704;7.822;2023-02-22T06:40:56;4.20;99.90
46416;DHT22;32620;51.704;7.822;2023-02-22T06:43:23;4.10;99.90
46416;DHT22;32620;51.704;7.822;2023-02-22T06:45:49;4.20;99.90
46416;DHT22;32620;51.704;7.822;2023-02-22T06:48:15;4.20;99.90
46416;DHT22;32620;51.704;7.822;2023-02-22T06:50:41;4.20;99.90
46416;DHT22;32620;51.704;7.822;2023-02-22T06:53:07;4.20;99.90
46416;DHT22;32620;51.704;7.822;2023-02-22T06:55:34;4.20;99.90
46416;DHT22;32620;51.704;7.822;2023-02-22T06:58:00;4.30;99.90
46416;DHT22;32620;51.704;7.822;2023-02-22T07:00:27;4.30;99.90
46416;DHT22;32620;51.704;7.822;2023-02-22T07:02:55;4.30;99.90
46416;DHT22;32620;51.704;7.822;2023-02-22T07:05:21;4.20;99.90
46416;DHT22;32620;51.704;7.822;2023-02-22T07:07:50;4.30;99.90
46416;DHT22;32620;51.704;7.822;2023-02-22T07:10:25;4.20;99.90
46416;DHT22;32620;51.704;7.822;2023-02-22T07:12:51;4.20;99.90
46416;DHT22;32620;51.704;7.822;2023-02-22T07:15:20;4.10;99.90
46416;DHT22;32620;51.704;7.822;2023-02-22T07:17:46;4.20;99.90
46416;DHT22;32620;51.704;7.822;2023-02-22T07:20:12;4.20;99.90
46416;DHT22;32620;51.704;7.822;2023-02-22T07:22:38;4.30;99.90
46416;DHT22;32620;51.704;7.822;2023-02-22T07:25:06;4.30;99.90
46416;DHT22;32620;51.704;7.822;2023-02-22T07:27:35;4.30;99.90
46416;DHT22;32620;51.704;7.822;2023-02-22T07:30:00;4.30;99.90
46416;DHT22;32620;51.704;7.822;2023-02-22T07:32:26;4.40;99.90
46416;DHT22;32620;51.704;7.822;2023-02-22T07:34:51;4.50;99.90
46416;DHT22;32620;51.704;7.822;2023-02-22T07:37:17;4.50;99.90
46416;DHT22;32620;51.704;7.822;2023-02-22T07:39:42;4.50;99.90
46416;DHT22;32620;51.704;7.822;2023-02-22T07:42:08;4.60;99.90
46416;DHT22;32620;51.704;7.822;2023-02-22T07:44:34;4.60;99.90
46416;DHT22;32620;51.704;7.822;2023-02-22T07:46:59;4.70;99.90
46416;DHT22;32620;51.704;7.822;2023-02-22T07:49:26;4.80;99.90
46416;DHT22;32620;51.704;7.822;2023-02-22T07:51:52;4.90;99.90
46416;DHT22;32620;51.704;7.822;2023-02-22T07:54:18;4.90;99.90
46416;DHT22;32620;51.704;7.822;2023-02-22T07:56:46;5.10;99.90
46416;DHT22;32620;51.704;7.822;2023-02-22T07:59:12;5.10;99.90
46416;DHT22;32620;51.704;7.822;2023-02-22T08:01:38;5.10;99.90
46416;DHT22;32620;51.704;7.822;2023-02-22T08:04:04;5.10;99.90
46416;DHT22;32620;51.704;7.822;2023-02-22T08:06:29;5.20;99.90
46416;DHT22;32620;51.704;7.822;2023-02-22T08:08:56;5.20;99.90
46416;DHT22;32620;51.704;7.822;2023-02-22T08:11:22;5.30;99.90
46416;DHT22;32620;51.704;7.822;2023-02-22T08:13:48;5.40;99.90
46416;DHT22;32620;51.704;7.822;2023-02-22T08:16:13;5.60;99.90
46416;DHT22;32620;51.704;7.822;2023-02-22T08:18:39;5.70;99.90
46416;DHT22;32620;51.704;7.822;2023-02-22T08:21:05;5.80;99.90
46416;DHT22;32620;51.704;7.822;2023-02-22T08:23:31;6.00;99.90
46416;DHT22;32620;51.704;7.822;2023-02-22T08:26:04;6.00;99.90
46416;DHT22;32620;51.704;7.822;2023-02-22T08:28:29;6.00;99.90
46416;DHT22;32620;51.704;7.822;2023-02-22T08:30:55;6.20;99.90
46416;DHT22;32620;51.704;7.822;2023-02-22T08:33:21;6.40;99.90
46416;DHT22;32620;51.704;7.822;2023-02-22T08:35:48;6.70;99.90
46416;DHT22;32620;51.704;7.822;2023-02-22T08:38:17;7.00;99.90
46416;DHT22;32620;51.704;7.822;2023-02-22T08:40:42;7.30;99.90
46416;DHT22;32620;51.704;7.822;2023-02-22T08:43:08;7.40;99.90
46416;DHT22;32620;51.704;7.822;2023-02-22T08:45:33;7.80;99.90
46416;DHT22;32620;51.704;7.822;2023-02-22T08:47:59;8.00;99.90
46416;DHT22;32620;51.704;7.822;2023-02-22T08:50:28;8.40;99.90
46416;DHT22;32620;51.704;7.822;2023-02-22T08:52:56;8.50;99.90
46416;DHT22;32620;51.704;7.822;2023-02-22T08:55:25;8.70;99.90
46416;DHT22;32620;51.704;7.822;2023-02-22T08:57:52;8.90;99.90
46416;DHT22;32620;51.704;7.822;2023-02-22T09:00:19;9.40;99.90
46416;DHT22;32620;51.704;7.822;2023-02-22T09:02:45;9.50;99.90
46416;DHT22;32620;51.704;7.822;2023-02-22T09:05:11;9.60;99.90
46416;DHT22;32620;51.704;7.822;2023-02-22T09:07:40;9.80;99.90
46416;DHT22;32620;51.704;7.822;2023-02-22T09:10:07;9.90;99.90
46416;DHT22;32620;51.704;7.822;2023-02-22T09:12:32;10.00;99.90
46416;DHT22;32620;51.704;7.822;2023-02-22T09:14:58;10.10;99.90
46416;DHT22;32620;51.704;7.822;2023-02-22T09:17:23;10.20;99.90
46416;DHT22;32620;51.704;7.822;2023-02-22T09:19:49;10.30;99.90
46416;DHT22;32620;51.704;7.822;2023-02-22T09:22:14;10.70;99.90
46416;DHT22;32620;51.704;7.822;2023-02-22T09:24:40;10.90;99.90
46416;DHT22;32620;51.704;7.822;2023-02-22T09:27:07;11.00;99.90
46416;DHT22;32620;51.704;7.822;2023-02-22T09:32:00;11.60;99.90
46416;DHT22;32620;51.704;7.822;2023-02-22T09:34:26;11.90;99.90
46416;DHT22;32620;51.704;7.822;2023-02-22T09:36:55;12.20;99.90
46416;DHT22;32620;51.704;7.822;2023-02-22T09:39:22;12.20;99.90
46416;DHT22;32620;51.704;7.822;2023-02-22T09:42:11;12.40;99.90
46416;DHT22;32620;51.704;7.822;2023-02-22T09:44:51;13.00;99.90
46416;DHT22;32620;51.704;7.822;2023-02-22T09:47:22;13.30;99.90
46416;DHT22;32620;51.704;7.822;2023-02-22T09:50:06;13.00;99.90
46416;DHT22;32620;51.704;7.822;2023-02-22T09:52:59;13.50;99.90
46416;DHT22;32620;51.704;7.822;2023-02-22T09:55:47;13.50;99.90
46416;DHT22;32620;51.704;7.822;2023-02-22T09:58:21;13.60;99.90
46416;DHT22;32620;51.704;7.822;2023-02-22T10:00:50;13.70;99.90
46416;DHT22;32620;51.704;7.822;2023-02-22T10:03:23;13.90;99.90
46416;DHT22;32620;51.704;7.822;2023-02-22T10:06:02;13.80;99.90
46416;DHT22;32620;51.704;7.822;2023-02-22T10:08:31;14.10;99.90
46416;DHT22;32620;51.704;7.822;2023-02-22T10:11:29;14.50;99.90
46416;DHT22;32620;51.704;7.822;2023-02-22T10:17:11;14.30;99.90
46416;DHT22;32620;51.704;7.822;2023-02-22T10:19:48;14.50;99.90
46416;DHT22;32620;51.704;7.822;2023-02-22T10:25:21;15.20;99.90
46416;DHT22;32620;51.704;7.822;2023-02-22T10:28:10;15.60;99.90
46416;DHT22;32620;51.704;7.822;2023-02-22T10:30:42;16.00;99.90
46416;DHT22;32620;51.704;7.822;2023-02-22T10:33:17;16.40;99.90
46416;DHT22;32620;51.704;7.822;2023-02-22T10:35:44;16.70;99.90
46416;DHT22;32620;51.704;7.822;2023-02-22T10:40:56;16.70;99.90
46416;DHT22;32620;51.704;7.822;2023-02-22T10:43:23;16.80;99.90
46416;DHT22;32620;51.704;7.822;2023-02-22T10:45:51;16.60;99.90
46416;DHT22;32620;51.704;7.822;2023-02-22T10:48:21;16.00;99.90
46416;DHT22;32620;51.704;7.822;2023-02-22T10:50:47;16.40;99.90
46416;DHT22;32620;51.704;7.822;2023-02-22T10:53:14;16.50;99.90
46416;DHT22;32620;51.704;7.822;2023-02-22T10:56:04;15.90;99.90
46416;DHT22;32620;51.704;7.822;2023-02-22T10:58:41;15.90;99.90
46416;DHT22;32620;51.704;7.822;2023-02-22T11:04:17;16.00;99.90
46416;DHT22;32620;51.704;7.822;2023-02-22T11:06:48;16.10;99.90
46416;DHT22;32620;51.704;7.822;2023-02-22T11:09:29;16.20;99.90
46416;DHT22;32620;51.704;7.822;2023-02-22T11:12:16;16.30;99.90
46416;DHT22;32620;51.704;7.822;2023-02-22T11:14:42;16.30;99.90
46416;DHT22;32620;51.704;7.822;2023-02-22T11:17:08;16.40;99.90
46416;DHT22;32620;51.704;7.822;2023-02-22T11:19:37;16.60;99.90
46416;DHT22;32620;51.704;7.822;2023-02-22T11:22:12;16.90;99.90
46416;DHT22;32620;51.704;7.822;2023-02-22T11:24:43;17.20;99.90
46416;DHT22;32620;51.704;7.822;2023-02-22T11:30:30;16.90;99.90
46416;DHT22;32620;51.704;7.822;2023-02-22T11:33:02;16.50;99.90
46416;DHT22;32620;51.704;7.822;2023-02-22T11:35:38;16.30;99.90
46416;DHT22;32620;51.704;7.822;2023-02-22T11:38:17;16.30;99.90
46416;DHT22;32620;51.704;7.822;2023-02-22T11:40:43;16.10;99.90
46416;DHT22;32620;51.704;7.822;2023-02-22T11:43:15;16.00;99.90
46416;DHT22;32620;51.704;7.822;2023-02-22T11:46:10;16.00;99.90
46416;DHT22;32620;51.704;7.822;2023-02-22T11:48:40;16.00;99.90
46416;DHT22;32620;51.704;7.822;2023-02-22T11:54:48;16.30;99.90
46416;DHT22;32620;51.704;7.822;2023-02-22T11:57:55;15.80;99.90
46416;DHT22;32620;51.704;7.822;2023-02-22T12:00:32;16.10;99.90
46416;DHT22;32620;51.704;7.822;2023-02-22T12:03:27;16.30;99.90
46416;DHT22;32620;51.704;7.822;2023-02-22T12:06:24;16.30;99.90
46416;DHT22;32620;51.704;7.822;2023-02-22T12:09:46;16.30;99.90
46416;DHT22;32620;51.704;7.822;2023-02-22T12:12:20;16.40;99.90
46416;DHT22;32620;51.704;7.822;2023-02-22T12:15:17;16.20;99.90
46416;DHT22;32620;51.704;7.822;2023-02-22T12:20:47;16.50;99.90
46416;DHT22;32620;51.704;7.822;2023-02-22T12:23:20;16.60;99.90
46416;DHT22;32620;51.704;7.822;2023-02-22T12:26:09;16.90;99.90
46416;DHT22;32620;51.704;7.822;2023-02-22T12:28:40;17.10;99.90
46416;DHT22;32620;51.704;7.822;2023-02-22T12:31:29;17.20;99.90
46416;DHT22;32620;51.704;7.822;2023-02-22T12:40:02;16.80;99.90
46416;DHT22;32620;51.704;7.822;2023-02-22T12:42:46;16.90;99.90
46416;DHT22;32620;51.704;7.822;2023-02-22T12:45:35;16.90;99.90
46416;DHT22;32620;51.704;7.822;2023-02-22T12:48:25;17.00;99.90
46416;DHT22;32620;51.704;7.822;2023-02-22T12:51:00;17.10;99.90
46416;DHT22;32620;51.704;7.822;2023-02-22T12:53:35;17.00;99.90
46416;DHT22;32620;51.704;7.822;2023-02-22T12:56:30;17.10;99.90
46416;DHT22;32620;51.704;7.822;2023-02-22T12:59:06;17.20;99.90
46416;DHT22;32620;51.704;7.822;2023-02-22T13:01:38;16.90;99.90
46416;DHT22;32620;51.704;7.822;2023-02-22T13:04:05;16.90;99.90
46416;DHT22;32620;51.704;7.822;2023-02-22T13:10:30;16.90;99.90
46416;DHT22;32620;51.704;7.822;2023-02-22T13:12:55;16.90;99.90
46416;DHT22;32620;51.704;7.822;2023-02-22T13:15:51;16.70;99.90
46416;DHT22;32620;51.704;7.822;2023-02-22T13:18:29;16.80;99.90
46416;DHT22;32620;51.704;7.822;2023-02-22T13:21:08;16.70;99.90
46416;DHT22;32620;51.704;7.822;2023-02-22T13:23:51;16.50;99.90
46416;DHT22;32620;51.704;7.822;2023-02-22T13:26:24;16.50;99.90
46416;DHT22;32620;51.704;7.822;2023-02-22T13:29:01;16.40;99.90
46416;DHT22;32620;51.704;7.822;2023-02-22T13:34:46;16.20;99.90
46416;DHT22;32620;51.704;7.822;2023-02-22T13:37:26;16.10;99.90
46416;DHT22;32620;51.704;7.822;2023-02-22T13:43:39;16.30;99.90
46416;DHT22;32620;51.704;7.822;2023-02-22T13:46:18;16.20;99.90
46416;DHT22;32620;51.704;7.822;2023-02-22T13:49:37;16.20;99.90
46416;DHT22;32620;51.704;7.822;2023-02-22T13:51:52;16.30;99.90
46416;DHT22;32620;51.704;7.822;2023-02-22T13:54:41;16.30;99.90
46416;DHT22;32620;51.704;7.822;2023-02-22T13:57:18;16.20;99.90
46416;DHT22;32620;51.704;7.822;2023-02-22T13:59:44;16.30;99.90
46416;DHT22;32620;51.704;7.822;2023-02-22T14:02:32;16.40;99.90
46416;DHT22;32620;51.704;7.822;2023-02-22T14:05:52;16.50;99.90
46416;DHT22;32620;51.704;7.822;2023-02-22T14:11:04;16.60;99.90
46416;DHT22;32620;51.704;7.822;2023-02-22T14:16:27;16.60;99.90
46416;DHT22;32620;51.704;7.822;2023-02-22T14:19:11;16.60;99.90
46416;DHT22;32620;51.704;7.822;2023-02-22T14:21:55;16.30;99.90
46416;DHT22;32620;51.704;7.822;2023-02-22T14:24:22;16.40;99.90
46416;DHT22;32620;51.704;7.822;2023-02-22T14:27:03;16.40;99.90
46416;DHT22;32620;51.704;7.822;2023-02-22T14:29:29;16.50;99.90
46416;DHT22;32620;51.704;7.822;2023-02-22T14:32:00;16.50;99.90
46416;DHT22;32620;51.704;7.822;2023-02-22T14:34:46;16.40;99.90
46416;DHT22;32620;51.704;7.822;2023-02-22T14:37:21;16.30;99.90
46416;DHT22;32620;51.704;7.822;2023-02-22T14:39:52;16.30;99.90
46416;DHT22;32620;51.704;7.822;2023-02-22T14:42:35;16.30;99.90
46416;DHT22;32620;51.704;7.822;2023-02-22T14:45:23;16.30;99.90
46416;DHT22;32620;51.704;7.822;2023-02-22T14:48:27;16.10;99.90
46416;DHT22;32620;51.704;7.822;2023-02-22T14:53:36;16.10;99.90
46416;DHT22;32620;51.704;7.822;2023-02-22T14:56:07;16.00;99.90
46416;DHT22;32620;51.704;7.822;2023-02-22T14:58:40;15.90;99.90
46416;DHT22;32620;51.704;7.822;2023-02-22T15:01:28;16.00;99.90
46416;DHT22;32620;51.704;7.822;2023-02-22T15:03:56;15.90;99.90
46416;DHT22;32620;51.704;7.822;2023-02-22T15:06:26;15.80;99.90
46416;DHT22;32620;51.704;7.822;2023-02-22T15:09:14;15.80;99.90
46416;DHT22;32620;51.704;7.822;2023-02-22T15:11:50;15.80;99.90
46416;DHT22;32620;51.704;7.822;2023-02-22T15:14:19;15.80;99.90
46416;DHT22;32620;51.704;7.822;2023-02-22T15:16:48;15.70;99.90
46416;DHT22;32620;51.704;7.822;2023-02-22T15:19:18;15.70;99.90
46416;DHT22;32620;51.704;7.822;2023-02-22T15:21:50;15.60;99.90
46416;DHT22;32620;51.704;7.822;2023-02-22T15:24:24;15.60;99.90
46416;DHT22;32620;51.704;7.822;2023-02-22T15:26:51;15.50;99.90
46416;DHT22;32620;51.704;7.822;2023-02-22T15:29:21;15.50;99.90
46416;DHT22;32620;51.704;7.822;2023-02-22T15:31:47;15.40;99.90
46416;DHT22;32620;51.704;7.822;2023-02-22T15:36:53;15.40;99.90
46416;DHT22;32620;51.704;7.822;2023-02-22T15:39:26;15.30;99.90
46416;DHT22;32620;51.704;7.822;2023-02-22T15:42:11;15.20;99.90
46416;DHT22;32620;51.704;7.822;2023-02-22T15:44:46;15.20;99.90
46416;DHT22;32620;51.704;7.822;2023-02-22T15:47:18;15.20;99.90
46416;DHT22;32620;51.704;7.822;2023-02-22T15:49:44;15.10;99.90
46416;DHT22;32620;51.704;7.822;2023-02-22T15:52:19;15.00;99.90
46416;DHT22;32620;51.704;7.822;2023-02-22T15:54:49;15.00;99.90
46416;DHT22;32620;51.704;7.822;2023-02-22T15:57:18;15.00;99.90
46416;DHT22;32620;51.704;7.822;2023-02-22T15:59:48;14.90;99.90
46416;DHT22;32620;51.704;7.822;2023-02-22T16:02:33;14.80;99.90
46416;DHT22;32620;51.704;7.822;2023-02-22T16:05:04;14.70;99.90
46416;DHT22;32620;51.704;7.822;2023-02-22T16:07:31;14.70;99.90
46416;DHT22;32620;51.704;7.822;2023-02-22T16:09:57;14.60;99.90
46416;DHT22;32620;51.704;7.822;2023-02-22T16:12:25;14.50;99.90
46416;DHT22;32620;51.704;7.822;2023-02-22T16:14:52;14.50;99.90
46416;DHT22;32620;51.704;7.822;2023-02-22T16:19:59;14.30;99.90
46416;DHT22;32620;51.704;7.822;2023-02-22T16:25:24;14.30;99.90
46416;DHT22;32620;51.704;7.822;2023-02-22T16:27:54;14.20;99.90
46416;DHT22;32620;51.704;7.822;2023-02-22T16:33:04;14.00;99.90
46416;DHT22;32620;51.704;7.822;2023-02-22T16:35:30;13.90;99.90
46416;DHT22;32620;51.704;7.822;2023-02-22T16:38:02;13.80;99.90
46416;DHT22;32620;51.704;7.822;2023-02-22T16:40:49;13.70;99.90
46416;DHT22;32620;51.704;7.822;2023-02-22T16:43:20;13.60;99.90
46416;DHT22;32620;51.704;7.822;2023-02-22T16:45:46;13.40;99.90
46416;DHT22;32620;51.704;7.822;2023-02-22T16:48:21;13.30;99.90
46416;DHT22;32620;51.704;7.822;2023-02-22T16:50:48;13.20;99.90
46416;DHT22;32620;51.704;7.822;2023-02-22T16:53:15;13.10;99.90
46416;DHT22;32620;51.704;7.822;2023-02-22T16:55:45;13.00;99.90
46416;DHT22;32620;51.704;7.822;2023-02-22T16:58:13;12.90;99.90
46416;DHT22;32620;51.704;7.822;2023-02-22T17:00:39;12.80;99.90
46416;DHT22;32620;51.704;7.822;2023-02-22T17:03:16;12.70;99.90
46416;DHT22;32620;51.704;7.822;2023-02-22T17:05:43;12.60;99.90
46416;DHT22;32620;51.704;7.822;2023-02-22T17:08:08;12.50;99.90
46416;DHT22;32620;51.704;7.822;2023-02-22T17:10:34;12.50;99.90
46416;DHT22;32620;51.704;7.822;2023-02-22T17:13:00;12.40;99.90
46416;DHT22;32620;51.704;7.822;2023-02-22T17:15:30;12.30;99.90
46416;DHT22;32620;51.704;7.822;2023-02-22T17:17:57;12.20;99.90
46416;DHT22;32620;51.704;7.822;2023-02-22T17:20:23;12.00;99.90